sensor_id;sensor_type;location;lat;lon;timestamp;pressure;altitude;pressure_sealevel;temperature;humidity
70217;BME280;57608;0.000;0.000;2022-09-12T00:01:21;99395.06;;;20.36;37.10
70217;BME280;57608;0.000;0.000;2022-09-12T00:03:48;99391.44;;;20.37;37.27
70217;BME280;57608;0.000;0.000;2022-09-12T00:06:20;99392.16;;;20.39;37.27
70217;BME280;57608;0.000;0.000;2022-09-12T00:08:46;99392.00;;;20.41;37.33
70217;BME280;57608;0.000;0.000;2022-09-12T00:11:12;99395.50;;;20.41;37.27
70217;BME280;57608;0.000;0.000;2022-09-12T00:13:40;99393.13;;;20.38;37.45
70217;BME280;57608;0.000;0.000;2022-09-12T00:16:06;99387.22;;;20.35;37.38
70217;BME280;57608;0.000;0.000;2022-09-12T00:18:32;99385.97;;;20.29;37.31
70217;BME280;57608;0.000;0.000;2022-09-12T00:21:02;99374.03;;;20.23;37.46
70217;BME280;57608;0.000;0.000;2022-09-12T00:23:29;99378.09;;;20.18;37.28
70217;BME280;57608;0.000;0.000;2022-09-12T00:25:54;99379.34;;;20.13;37.46
70217;BME280;57608;0.000;0.000;2022-09-12T00:28:19;99370.22;;;20.06;37.67
70217;BME280;57608;0.000;0.000;2022-09-12T00:30:46;99373.84;;;20.05;37.86
70217;BME280;57608;0.000;0.000;2022-09-12T00:33:13;99364.22;;;20.04;37.72
70217;BME280;57608;0.000;0.000;2022-09-12T00:35:41;99367.84;;;20.03;37.93
70217;BME280;57608;0.000;0.000;2022-09-12T00:38:07;99357.78;;;20.07;37.93
70217;BME280;57608;0.000;0.000;2022-09-12T00:40:32;99362.00;;;20.09;37.90
70217;BME280;57608;0.000;0.000;2022-09-12T00:42:58;99362.81;;;20.10;37.89
70217;BME280;57608;0.000;0.000;2022-09-12T00:45:27;99359.56;;;20.06;37.85
70217;BME280;57608;0.000;0.000;2022-09-12T00:47:54;99355.38;;;20.04;37.97
70217;BME280;57608;0.000;0.000;2022-09-12T00:50:21;99356.63;;;20.00;37.99
70217;BME280;57608;0.000;0.000;2022-09-12T00:52:57;99361.66;;;19.93;37.86
70217;BME280;57608;0.000;0.000;2022-09-12T00:55:27;99359.28;;;19.90;38.16
70217;BME280;57608;0.000;0.000;2022-09-12T01:00:27;99351.81;;;19.84;38.04
70217;BME280;57608;0.000;0.000;2022-09-12T01:03:03;99354.47;;;19.84;38.13
70217;BME280;57608;0.000;0.000;2022-09-12T01:05:33;99355.16;;;19.86;38.46
70217;BME280;57608;0.000;0.000;2022-09-12T01:08:00;99345.13;;;19.89;38.32
70217;BME280;57608;0.000;0.000;2022-09-12T01:10:26;99348.06;;;19.96;38.38
70217;BME280;57608;0.000;0.000;2022-09-12T01:12:52;99347.69;;;20.01;38.41
70217;BME280;57608;0.000;0.000;2022-09-12T01:15:18;99344.34;;;20.08;38.46
70217;BME280;57608;0.000;0.000;2022-09-12T01:32:17;99344.94;;;20.32;38.51
70217;BME280;57608;0.000;0.000;2022-09-12T01:34:54;99341.28;;;20.33;38.38
70217;BME280;57608;0.000;0.000;2022-09-12T01:37:30;99349.16;;;20.34;38.17
70217;BME280;57608;0.000;0.000;2022-09-12T01:42:55;99340.03;;;20.27;38.28
70217;BME280;57608;0.000;0.000;2022-09-12T01:46:12;99340.47;;;20.22;38.42
70217;BME280;57608;0.000;0.000;2022-09-12T01:48:29;99345.47;;;20.16;38.15
70217;BME280;57608;0.000;0.000;2022-09-12T01:51:21;99335.66;;;20.06;38.56
70217;BME280;57608;0.000;0.000;2022-09-12T01:53:57;99336.75;;;20.04;38.46
70217;BME280;57608;0.000;0.000;2022-09-12T01:56:27;99336.47;;;19.97;38.57
70217;BME280;57608;0.000;0.000;2022-09-12T01:59:02;99332.13;;;19.96;38.48
70217;BME280;57608;0.000;0.000;2022-09-12T02:01:39;99335.63;;;19.96;38.43
70217;BME280;57608;0.000;0.000;2022-09-12T02:04:13;99337.28;;;19.97;38.76
70217;BME280;57608;0.000;0.000;2022-09-12T02:10:04;99342.22;;;20.02;38.72
70217;BME280;57608;0.000;0.000;2022-09-12T02:12:36;99335.34;;;20.00;38.68
70217;BME280;57608;0.000;0.000;2022-09-12T02:15:06;99338.41;;;19.95;38.73
70217;BME280;57608;0.000;0.000;2022-09-12T02:17:37;99341.34;;;19.92;38.62
70217;BME280;57608;0.000;0.000;2022-09-12T02:20:25;99332.94;;;19.87;38.65
70217;BME280;57608;0.000;0.000;2022-09-12T02:22:51;99334.19;;;19.83;38.80
70217;BME280;57608;0.000;0.000;2022-09-12T02:25:20;99339.75;;;19.79;38.77
70217;BME280;57608;0.000;0.000;2022-09-12T02:28:09;99331.34;;;19.74;38.77
70217;BME280;57608;0.000;0.000;2022-09-12T02:30:42;99325.88;;;19.76;38.90
70217;BME280;57608;0.000;0.000;2022-09-12T02:33:19;99334.53;;;19.78;39.03
70217;BME280;57608;0.000;0.000;2022-09-12T02:36:11;99330.56;;;19.84;38.86
70217;BME280;57608;0.000;0.000;2022-09-12T02:38:45;99328.34;;;19.89;39.14
70217;BME280;57608;0.000;0.000;2022-09-12T02:41:17;99326.13;;;19.94;38.88
70217;BME280;57608;0.000;0.000;2022-09-12T02:43:43;99324.72;;;20.00;39.18
70217;BME280;57608;0.000;0.000;2022-09-12T02:46:19;99329.63;;;20.04;39.03
70217;BME280;57608;0.000;0.000;2022-09-12T02:48:46;99330.06;;;20.09;38.92
70217;BME280;57608;0.000;0.000;2022-09-12T02:51:12;99331.47;;;20.13;39.02
70217;BME280;57608;0.000;0.000;2022-09-12T02:53:38;99329.50;;;20.16;38.96
70217;BME280;57608;0.000;0.000;2022-09-12T02:56:07;99334.56;;;20.19;38.92
70217;BME280;57608;0.000;0.000;2022-09-12T02:58:35;99329.09;;;20.20;39.09
70217;BME280;57608;0.000;0.000;2022-09-12T03:04:18;99334.28;;;20.22;38.75
70217;BME280;57608;0.000;0.000;2022-09-12T03:06:50;99329.81;;;20.22;38.93
70217;BME280;57608;0.000;0.000;2022-09-12T03:09:54;99333.59;;;20.20;39.19
70217;BME280;57608;0.000;0.000;2022-09-12T03:23:45;99332.25;;;19.85;39.17
70217;BME280;57608;0.000;0.000;2022-09-12T03:28:50;99335.72;;;19.85;39.31
70217;BME280;57608;0.000;0.000;2022-09-12T03:31:18;99336.56;;;19.86;39.36
70217;BME280;57608;0.000;0.000;2022-09-12T03:33:44;99334.75;;;19.86;39.30
70217;BME280;57608;0.000;0.000;2022-09-12T03:36:15;99342.59;;;19.88;39.38
70217;BME280;57608;0.000;0.000;2022-09-12T03:38:43;99335.44;;;19.88;39.55
70217;BME280;57608;0.000;0.000;2022-09-12T03:41:09;99333.06;;;19.85;39.43
70217;BME280;57608;0.000;0.000;2022-09-12T03:43:34;99334.28;;;19.81;39.64
70217;BME280;57608;0.000;0.000;2022-09-12T03:46:00;99340.72;;;19.78;39.61
70217;BME280;57608;0.000;0.000;2022-09-12T03:48:25;99334.97;;;19.73;39.58
70217;BME280;57608;0.000;0.000;2022-09-12T03:50:51;99327.38;;;19.69;39.71
70217;BME280;57608;0.000;0.000;2022-09-12T03:53:16;99332.16;;;19.65;39.58
70217;BME280;57608;0.000;0.000;2022-09-12T03:55:42;99326.25;;;19.61;39.60
70217;BME280;57608;0.000;0.000;2022-09-12T03:58:07;99319.97;;;19.62;39.65
70217;BME280;57608;0.000;0.000;2022-09-12T04:00:32;99313.66;;;19.63;39.72
70217;BME280;57608;0.000;0.000;2022-09-12T04:02:58;99317.03;;;19.65;39.75
70217;BME280;57608;0.000;0.000;2022-09-12T04:05:24;99316.38;;;19.73;39.97
70217;BME280;57608;0.000;0.000;2022-09-12T04:07:50;99314.00;;;19.80;40.19
70217;BME280;57608;0.000;0.000;2022-09-12T04:10:16;99312.63;;;19.86;40.27
70217;BME280;57608;0.000;0.000;2022-09-12T04:12:42;99304.41;;;19.89;40.07
70217;BME280;57608;0.000;0.000;2022-09-12T04:15:09;99311.56;;;19.98;40.39
70217;BME280;57608;0.000;0.000;2022-09-12T04:17:34;99310.59;;;19.99;40.51
70217;BME280;57608;0.000;0.000;2022-09-12T04:20:00;99322.50;;;20.05;40.44
70217;BME280;57608;0.000;0.000;2022-09-12T04:22:25;99317.03;;;20.06;40.49
70217;BME280;57608;0.000;0.000;2022-09-12T04:24:51;99328.25;;;20.10;40.64
70217;BME280;57608;0.000;0.000;2022-09-12T04:27:17;99323.63;;;20.12;40.72
70217;BME280;57608;0.000;0.000;2022-09-12T04:29:42;99322.53;;;20.14;40.91
70217;BME280;57608;0.000;0.000;2022-09-12T04:32:08;99325.19;;;20.14;40.73
70217;BME280;57608;0.000;0.000;2022-09-12T04:34:33;99329.78;;;20.12;40.76
70217;BME280;57608;0.000;0.000;2022-09-12T04:36:59;99324.75;;;20.09;40.68
70217;BME280;57608;0.000;0.000;2022-09-12T04:39:24;99319.69;;;20.06;40.70
70217;BME280;57608;0.000;0.000;2022-09-12T04:41:49;99320.22;;;20.00;40.70
70217;BME280;57608;0.000;0.000;2022-09-12T04:44:16;99317.13;;;19.95;40.61
70217;BME280;57608;0.000;0.000;2022-09-12T04:46:44;99321.03;;;19.91;40.54
70217;BME280;57608;0.000;0.000;2022-09-12T04:49:12;99323.41;;;19.84;40.59
70217;BME280;57608;0.000;0.000;2022-09-12T04:51:39;99323.81;;;19.79;40.56
70217;BME280;57608;0.000;0.000;2022-09-12T04:54:10;99320.72;;;19.74;40.46
70217;BME280;57608;0.000;0.000;2022-09-12T04:56:38;99318.28;;;19.71;40.59
70217;BME280;57608;0.000;0.000;2022-09-12T04:59:04;99316.50;;;19.72;40.58
70217;BME280;57608;0.000;0.000;2022-09-12T05:01:31;99326.28;;;19.71;40.56
70217;BME280;57608;0.000;0.000;2022-09-12T05:03:57;99316.88;;;19.67;40.68
70217;BME280;57608;0.000;0.000;2022-09-12T05:06:26;99324.72;;;19.69;40.37
70217;BME280;57608;0.000;0.000;2022-09-12T05:08:53;99326.13;;;19.63;40.53
70217;BME280;57608;0.000;0.000;2022-09-12T05:11:22;99328.19;;;19.59;40.58
70217;BME280;57608;0.000;0.000;2022-09-12T05:13:50;99321.47;;;19.55;40.96
70217;BME280;57608;0.000;0.000;2022-09-12T05:16:19;99328.03;;;19.51;41.33
70217;BME280;57608;0.000;0.000;2022-09-12T05:18:46;99320.06;;;19.51;43.08
70217;BME280;57608;0.000;0.000;2022-09-12T05:21:14;99322.44;;;19.54;43.56
70217;BME280;57608;0.000;0.000;2022-09-12T05:23:40;99310.84;;;19.55;43.50
70217;BME280;57608;0.000;0.000;2022-09-12T05:26:06;99325.66;;;19.58;43.54
70217;BME280;57608;0.000;0.000;2022-09-12T05:28:34;99320.06;;;19.61;43.30
70217;BME280;57608;0.000;0.000;2022-09-12T05:33:29;99323.63;;;19.71;43.24
70217;BME280;57608;0.000;0.000;2022-09-12T05:35:55;99322.13;;;19.78;43.50
70217;BME280;57608;0.000;0.000;2022-09-12T05:38:21;99317.13;;;19.85;43.52
70217;BME280;57608;0.000;0.000;2022-09-12T05:40:49;99316.44;;;19.93;43.20
70217;BME280;57608;0.000;0.000;2022-09-12T05:43:14;99313.50;;;19.96;43.20
70217;BME280;57608;0.000;0.000;2022-09-12T05:45:40;99319.13;;;20.03;42.93
70217;BME280;57608;0.000;0.000;2022-09-12T05:48:06;99311.72;;;20.06;43.04
70217;BME280;57608;0.000;0.000;2022-09-12T05:50:31;99316.78;;;20.09;42.45
70217;BME280;57608;0.000;0.000;2022-09-12T05:52:57;99318.31;;;20.12;42.30
70217;BME280;57608;0.000;0.000;2022-09-12T05:55:22;99313.00;;;20.12;41.99
70217;BME280;57608;0.000;0.000;2022-09-12T05:57:49;99309.34;;;20.13;41.82
70217;BME280;57608;0.000;0.000;2022-09-12T06:00:15;99319.97;;;20.13;42.21
70217;BME280;57608;0.000;0.000;2022-09-12T06:02:41;99319.88;;;20.14;42.26
70217;BME280;57608;0.000;0.000;2022-09-12T06:05:07;99311.16;;;20.12;42.25
70217;BME280;57608;0.000;0.000;2022-09-12T06:07:32;99303.19;;;20.12;42.27
70217;BME280;57608;0.000;0.000;2022-09-12T06:09:58;99305.13;;;20.10;42.55
70217;BME280;57608;0.000;0.000;2022-09-12T06:12:24;99293.81;;;20.08;43.22
70217;BME280;57608;0.000;0.000;2022-09-12T06:14:51;99305.84;;;20.12;43.02
70217;BME280;57608;0.000;0.000;2022-09-12T06:17:17;99296.47;;;20.08;42.55
70217;BME280;57608;0.000;0.000;2022-09-12T06:19:43;99302.63;;;20.09;42.43
70217;BME280;57608;0.000;0.000;2022-09-12T06:22:09;99298.16;;;20.09;42.37
70217;BME280;57608;0.000;0.000;2022-09-12T06:24:35;99307.69;;;20.12;42.40
70217;BME280;57608;0.000;0.000;2022-09-12T06:27:01;99310.06;;;20.15;42.87
70217;BME280;57608;0.000;0.000;2022-09-12T06:29:27;99311.47;;;20.19;42.72
70217;BME280;57608;0.000;0.000;2022-09-12T06:31:53;99307.97;;;20.19;42.71
70217;BME280;57608;0.000;0.000;2022-09-12T06:34:19;99315.81;;;20.20;42.67
70217;BME280;57608;0.000;0.000;2022-09-12T06:36:46;99314.25;;;20.18;42.76
70217;BME280;57608;0.000;0.000;2022-09-12T06:39:19;99310.19;;;20.13;42.81
70217;BME280;57608;0.000;0.000;2022-09-12T06:41:46;99310.59;;;20.09;42.93
70217;BME280;57608;0.000;0.000;2022-09-12T06:44:15;99303.59;;;20.08;42.93
70217;BME280;57608;0.000;0.000;2022-09-12T06:46:42;99315.09;;;20.08;43.13
70217;BME280;57608;0.000;0.000;2022-09-12T06:49:08;99315.09;;;20.08;42.85
70217;BME280;57608;0.000;0.000;2022-09-12T06:51:34;99313.84;;;20.12;42.67
70217;BME280;57608;0.000;0.000;2022-09-12T06:54:02;99321.53;;;20.16;42.44
70217;BME280;57608;0.000;0.000;2022-09-12T06:56:28;99316.63;;;20.21;42.45
70217;BME280;57608;0.000;0.000;2022-09-12T06:58:58;99307.53;;;20.23;42.31
70217;BME280;57608;0.000;0.000;2022-09-12T07:01:30;99314.16;;;20.29;42.08
70217;BME280;57608;0.000;0.000;2022-09-12T07:03:58;99313.03;;;20.32;41.93
70217;BME280;57608;0.000;0.000;2022-09-12T07:06:26;99324.22;;;20.35;41.81
70217;BME280;57608;0.000;0.000;2022-09-12T07:08:59;99310.22;;;20.33;41.91
70217;BME280;57608;0.000;0.000;2022-09-12T07:11:28;99327.28;;;20.40;41.99
70217;BME280;57608;0.000;0.000;2022-09-12T07:13:55;99323.66;;;20.41;41.78
70217;BME280;57608;0.000;0.000;2022-09-12T07:16:21;99328.72;;;20.44;41.76
70217;BME280;57608;0.000;0.000;2022-09-12T07:18:52;99321.72;;;20.43;41.74
70217;BME280;57608;0.000;0.000;2022-09-12T07:21:18;99327.03;;;20.43;41.63
70217;BME280;57608;0.000;0.000;2022-09-12T07:23:44;99323.41;;;20.44;41.54
70217;BME280;57608;0.000;0.000;2022-09-12T07:26:11;99325.34;;;20.42;41.42
70217;BME280;57608;0.000;0.000;2022-09-12T07:28:37;99321.28;;;20.38;41.62
70217;BME280;57608;0.000;0.000;2022-09-12T07:31:11;99327.88;;;20.34;41.66
70217;BME280;57608;0.000;0.000;2022-09-12T07:33:38;99321.41;;;20.27;41.74
70217;BME280;57608;0.000;0.000;2022-09-12T07:36:06;99329.69;;;20.24;41.59
70217;BME280;57608;0.000;0.000;2022-09-12T07:38:33;99330.94;;;20.20;41.71
70217;BME280;57608;0.000;0.000;2022-09-12T07:40:58;99336.78;;;20.13;41.82
70217;BME280;57608;0.000;0.000;2022-09-12T07:43:26;99333.28;;;20.13;41.81
70217;BME280;57608;0.000;0.000;2022-09-12T07:45:57;99343.09;;;20.12;41.69
70217;BME280;57608;0.000;0.000;2022-09-12T07:48:23;99336.78;;;20.13;41.82
70217;BME280;57608;0.000;0.000;2022-09-12T07:51:09;99338.47;;;20.14;41.79
70217;BME280;57608;0.000;0.000;2022-09-12T07:53:37;99338.19;;;20.18;42.41
70217;BME280;57608;0.000;0.000;2022-09-12T07:56:04;99342.53;;;20.19;42.80
70217;BME280;57608;0.000;0.000;2022-09-12T07:58:31;99340.13;;;20.16;42.78
70217;BME280;57608;0.000;0.000;2022-09-12T08:01:03;99342.13;;;20.13;42.58
70217;BME280;57608;0.000;0.000;2022-09-12T08:03:30;99342.38;;;20.10;42.66
70217;BME280;57608;0.000;0.000;2022-09-12T08:06:06;99340.00;;;20.07;42.59
70217;BME280;57608;0.000;0.000;2022-09-12T08:08:34;99337.63;;;20.04;42.60
70217;BME280;57608;0.000;0.000;2022-09-12T08:11:01;99342.63;;;19.97;42.60
70217;BME280;57608;0.000;0.000;2022-09-12T08:13:28;99347.94;;;19.97;42.38
70217;BME280;57608;0.000;0.000;2022-09-12T08:16:05;99361.38;;;19.96;42.25
70217;BME280;57608;0.000;0.000;2022-09-12T08:18:30;99346.28;;;19.96;42.47
70217;BME280;57608;0.000;0.000;2022-09-12T08:21:02;99349.22;;;20.03;42.35
70217;BME280;57608;0.000;0.000;2022-09-12T08:23:28;99351.59;;;20.06;42.26
70217;BME280;57608;0.000;0.000;2022-09-12T08:25:58;99346.03;;;20.09;42.15
70217;BME280;57608;0.000;0.000;2022-09-12T08:28:24;99344.50;;;20.17;42.05
70217;BME280;57608;0.000;0.000;2022-09-12T08:30:51;99350.53;;;20.19;42.05
70217;BME280;57608;0.000;0.000;2022-09-12T08:33:17;99348.44;;;20.22;41.81
70217;BME280;57608;0.000;0.000;2022-09-12T08:35:42;99339.31;;;20.25;41.80
70217;BME280;57608;0.000;0.000;2022-09-12T08:38:08;99341.72;;;20.28;41.73
70217;BME280;57608;0.000;0.000;2022-09-12T08:40:49;99347.72;;;20.30;41.63
70217;BME280;57608;0.000;0.000;2022-09-12T08:46:14;99339.63;;;20.32;41.43
70217;BME280;57608;0.000;0.000;2022-09-12T08:48:44;99341.28;;;20.33;41.46
70217;BME280;57608;0.000;0.000;2022-09-12T08:51:13;99331.75;;;20.30;41.56
70217;BME280;57608;0.000;0.000;2022-09-12T08:53:40;99338.09;;;20.29;41.34
70217;BME280;57608;0.000;0.000;2022-09-12T08:56:08;99341.28;;;20.23;41.36
70217;BME280;57608;0.000;0.000;2022-09-12T08:58:40;99336.38;;;20.18;41.40
70217;BME280;57608;0.000;0.000;2022-09-12T09:08:49;99322.19;;;19.98;41.40
70217;BME280;57608;0.000;0.000;2022-09-12T09:14:42;99328.63;;;19.95;41.38
70217;BME280;57608;0.000;0.000;2022-09-12T09:19:50;99327.53;;;19.98;41.35
70217;BME280;57608;0.000;0.000;2022-09-12T09:22:30;99324.00;;;19.97;41.25
70217;BME280;57608;0.000;0.000;2022-09-12T09:25:04;99318.69;;;19.97;41.35
70217;BME280;57608;0.000;0.000;2022-09-12T09:27:33;99315.47;;;19.94;41.40
70217;BME280;57608;0.000;0.000;2022-09-12T09:30:00;99321.19;;;19.89;41.58
70217;BME280;57608;0.000;0.000;2022-09-12T09:32:27;99324.97;;;19.87;41.43
70217;BME280;57608;0.000;0.000;2022-09-12T09:34:54;99310.25;;;19.83;41.49
70217;BME280;57608;0.000;0.000;2022-09-12T09:37:42;99321.16;;;19.79;41.36
70217;BME280;57608;0.000;0.000;2022-09-12T09:40:24;99324.06;;;19.76;41.44
70217;BME280;57608;0.000;0.000;2022-09-12T09:45:22;99329.38;;;19.76;41.40
70217;BME280;57608;0.000;0.000;2022-09-12T09:47:53;99323.81;;;19.79;41.31
70217;BME280;57608;0.000;0.000;2022-09-12T09:50:21;99324.63;;;19.80;41.24
70217;BME280;57608;0.000;0.000;2022-09-12T09:52:49;99335.34;;;19.90;41.27
70217;BME280;57608;0.000;0.000;2022-09-12T09:55:20;99326.13;;;19.94;41.20
70217;BME280;57608;0.000;0.000;2022-09-12T09:57:47;99332.84;;;19.98;41.18
70217;BME280;57608;0.000;0.000;2022-09-12T10:00:35;99331.28;;;20.05;41.04
70217;BME280;57608;0.000;0.000;2022-09-12T10:05:52;99334.28;;;20.12;40.94
70217;BME280;57608;0.000;0.000;2022-09-12T10:16:19;99329.81;;;20.22;40.77
70217;BME280;57608;0.000;0.000;2022-09-12T10:18:46;99327.28;;;20.21;40.71
70217;BME280;57608;0.000;0.000;2022-09-12T10:23:50;99332.06;;;20.17;40.60
70217;BME280;57608;0.000;0.000;2022-09-12T10:26:19;99329.78;;;20.12;40.61
70217;BME280;57608;0.000;0.000;2022-09-12T10:28:49;99325.16;;;20.05;40.58
70217;BME280;57608;0.000;0.000;2022-09-12T10:31:22;99328.19;;;20.00;40.81
70217;BME280;57608;0.000;0.000;2022-09-12T10:33:53;99332.25;;;19.94;40.84
70217;BME280;57608;0.000;0.000;2022-09-12T10:36:20;99324.72;;;19.90;40.70
70217;BME280;57608;0.000;0.000;2022-09-12T10:38:52;99322.44;;;19.85;40.64
70217;BME280;57608;0.000;0.000;2022-09-12T10:41:19;99329.59;;;19.85;40.68
70217;BME280;57608;0.000;0.000;2022-09-12T10:43:46;99327.91;;;19.84;40.76
70217;BME280;57608;0.000;0.000;2022-09-12T10:48:41;99324.97;;;19.87;40.71
70217;BME280;57608;0.000;0.000;2022-09-12T10:51:27;99328.34;;;19.89;40.63
70217;BME280;57608;0.000;0.000;2022-09-12T10:53:56;99324.13;;;19.86;40.68
70217;BME280;57608;0.000;0.000;2022-09-12T10:59:29;99319.59;;;19.77;40.88
70217;BME280;57608;0.000;0.000;2022-09-12T11:10:34;99323.44;;;19.63;40.88
70217;BME280;57608;0.000;0.000;2022-09-12T11:21:24;99317.91;;;19.76;40.66
70217;BME280;57608;0.000;0.000;2022-09-12T11:29:57;99306.50;;;19.95;40.56
70217;BME280;57608;0.000;0.000;2022-09-12T11:35:23;99318.16;;;20.04;40.51
70217;BME280;57608;0.000;0.000;2022-09-12T11:38:12;99311.56;;;20.08;40.50
70217;BME280;57608;0.000;0.000;2022-09-12T11:40:53;99306.00;;;20.11;40.47
70217;BME280;57608;0.000;0.000;2022-09-12T11:46:19;99300.53;;;20.12;40.11
70217;BME280;57608;0.000;0.000;2022-09-12T11:54:13;99314.38;;;20.06;40.27
70217;BME280;57608;0.000;0.000;2022-09-12T11:56:45;99293.91;;;19.97;40.26
70217;BME280;57608;0.000;0.000;2022-09-12T11:59:30;99312.53;;;19.97;40.39
70217;BME280;57608;0.000;0.000;2022-09-12T12:01:57;99298.13;;;19.90;40.60
70217;BME280;57608;0.000;0.000;2022-09-12T12:04:35;99300.06;;;19.88;40.61
70217;BME280;57608;0.000;0.000;2022-09-12T12:07:10;99292.38;;;19.85;40.68
70217;BME280;57608;0.000;0.000;2022-09-12T12:09:56;99296.97;;;19.83;40.84
70217;BME280;57608;0.000;0.000;2022-09-12T12:12:24;99292.63;;;19.81;40.77
70217;BME280;57608;0.000;0.000;2022-09-12T12:14:53;99289.00;;;19.83;40.74
70217;BME280;57608;0.000;0.000;2022-09-12T12:17:21;99286.06;;;19.86;40.84
70217;BME280;57608;0.000;0.000;2022-09-12T12:19:58;99287.75;;;19.87;40.75
70217;BME280;57608;0.000;0.000;2022-09-12T12:22:24;99281.59;;;19.86;40.68
70217;BME280;57608;0.000;0.000;2022-09-12T12:24:55;99287.06;;;19.85;40.63
70217;BME280;57608;0.000;0.000;2022-09-12T12:27:44;99291.91;;;19.79;40.66
70217;BME280;57608;0.000;0.000;2022-09-12T12:33:50;99278.44;;;19.71;41.03
70217;BME280;57608;0.000;0.000;2022-09-12T12:38:29;99278.28;;;19.63;40.92
70217;BME280;57608;0.000;0.000;2022-09-12T12:43:52;99268.38;;;19.65;40.86
70217;BME280;57608;0.000;0.000;2022-09-12T12:46:25;99273.41;;;19.68;40.81
70217;BME280;57608;0.000;0.000;2022-09-12T12:49:17;99270.22;;;19.74;40.76
70217;BME280;57608;0.000;0.000;2022-09-12T12:51:54;99272.28;;;19.80;40.52
70217;BME280;57608;0.000;0.000;2022-09-12T12:55:00;99270.09;;;19.86;40.61
70217;BME280;57608;0.000;0.000;2022-09-12T12:57:29;99267.06;;;19.90;40.60
70217;BME280;57608;0.000;0.000;2022-09-12T13:02:29;99272.38;;;20.00;40.50
70217;BME280;57608;0.000;0.000;2022-09-12T13:04:58;99266.78;;;20.03;40.44
70217;BME280;57608;0.000;0.000;2022-09-12T13:07:30;99274.34;;;20.08;40.43
70217;BME280;57608;0.000;0.000;2022-09-12T13:09:58;99266.25;;;20.09;40.25
70217;BME280;57608;0.000;0.000;2022-09-12T13:12:28;99262.47;;;20.12;40.30
70217;BME280;57608;0.000;0.000;2022-09-12T13:14:59;99267.66;;;20.13;40.42
70217;BME280;57608;0.000;0.000;2022-09-12T13:17:41;99265.00;;;20.13;40.18
70217;BME280;57608;0.000;0.000;2022-09-12T13:22:43;99268.47;;;20.04;40.45
70217;BME280;57608;0.000;0.000;2022-09-12T13:25:35;99270.00;;;19.97;40.01
70217;BME280;57608;0.000;0.000;2022-09-12T13:28:13;99272.09;;;19.93;40.40
70217;BME280;57608;0.000;0.000;2022-09-12T13:33:33;99262.84;;;19.88;40.92
70217;BME280;57608;0.000;0.000;2022-09-12T13:44:16;99263.13;;;19.94;40.96
70217;BME280;57608;0.000;0.000;2022-09-12T13:46:43;99256.97;;;19.94;40.95
70217;BME280;57608;0.000;0.000;2022-09-12T13:52:14;99253.31;;;19.95;40.85
70217;BME280;57608;0.000;0.000;2022-09-12T13:54:38;99257.25;;;19.91;40.90
70217;BME280;57608;0.000;0.000;2022-09-12T13:57:04;99255.69;;;19.88;40.74
70217;BME280;57608;0.000;0.000;2022-09-12T13:59:40;99260.19;;;19.88;40.79
70217;BME280;57608;0.000;0.000;2022-09-12T14:02:20;99258.25;;;19.90;40.74
70217;BME280;57608;0.000;0.000;2022-09-12T14:04:47;99256.13;;;19.93;40.66
70217;BME280;57608;0.000;0.000;2022-09-12T14:10:26;99256.16;;;20.03;40.34
70217;BME280;57608;0.000;0.000;2022-09-12T14:12:53;99245.53;;;20.03;40.54
70217;BME280;57608;0.000;0.000;2022-09-12T14:15:24;99259.81;;;20.12;40.44
70217;BME280;57608;0.000;0.000;2022-09-12T14:17:57;99247.19;;;20.14;40.44
70217;BME280;57608;0.000;0.000;2022-09-12T14:20:30;99260.09;;;20.19;40.33
70217;BME280;57608;0.000;0.000;2022-09-12T14:23:01;99253.66;;;20.21;40.37
70217;BME280;57608;0.000;0.000;2022-09-12T14:25:35;99255.34;;;20.22;40.28
70217;BME280;57608;0.000;0.000;2022-09-12T14:28:02;99259.50;;;20.25;40.24
70217;BME280;57608;0.000;0.000;2022-09-12T14:30:33;99255.06;;;20.25;40.09
70217;BME280;57608;0.000;0.000;2022-09-12T14:33:20;99260.22;;;20.27;40.31
70217;BME280;57608;0.000;0.000;2022-09-12T14:35:51;99271.00;;;20.25;40.19
70217;BME280;57608;0.000;0.000;2022-09-12T14:38:24;99257.28;;;20.20;40.10
70217;BME280;57608;0.000;0.000;2022-09-12T14:41:00;99264.00;;;20.14;40.15
70217;BME280;57608;0.000;0.000;2022-09-12T14:43:32;99264.56;;;20.08;39.98
70217;BME280;57608;0.000;0.000;2022-09-12T14:46:07;99272.09;;;20.03;40.18
70217;BME280;57608;0.000;0.000;2022-09-12T14:48:43;99270.13;;;19.95;40.14
70217;BME280;57608;0.000;0.000;2022-09-12T14:51:46;99269.56;;;19.92;40.13
70217;BME280;57608;0.000;0.000;2022-09-12T14:57:00;99268.44;;;19.85;40.29
70217;BME280;57608;0.000;0.000;2022-09-12T14:59:36;99265.91;;;19.83;40.18
70217;BME280;57608;0.000;0.000;2022-09-12T15:04:46;99268.31;;;19.86;40.21
70217;BME280;57608;0.000;0.000;2022-09-12T15:07:34;99270.09;;;19.86;40.36
70217;BME280;57608;0.000;0.000;2022-09-12T15:10:01;99273.03;;;19.83;40.31
70217;BME280;57608;0.000;0.000;2022-09-12T15:12:27;99271.63;;;19.78;40.43
70217;BME280;57608;0.000;0.000;2022-09-12T15:15:05;99275.25;;;19.77;40.73
70217;BME280;57608;0.000;0.000;2022-09-12T15:17:31;99268.38;;;19.75;40.71
70217;BME280;57608;0.000;0.000;2022-09-12T15:19:57;99272.72;;;19.76;40.64
70217;BME280;57608;0.000;0.000;2022-09-12T15:22:23;99277.91;;;19.77;40.58
70217;BME280;57608;0.000;0.000;2022-09-12T15:24:50;99279.34;;;19.81;40.60
70217;BME280;57608;0.000;0.000;2022-09-12T15:27:15;99280.72;;;19.86;40.50
70217;BME280;57608;0.000;0.000;2022-09-12T15:29:41;99278.50;;;19.91;40.55
70217;BME280;57608;0.000;0.000;2022-09-12T15:32:11;99285.22;;;19.95;40.60
70217;BME280;57608;0.000;0.000;2022-09-12T15:34:39;99286.66;;;19.99;40.56
70217;BME280;57608;0.000;0.000;2022-09-12T15:37:11;99288.75;;;20.05;40.49
70217;BME280;57608;0.000;0.000;2022-09-12T15:39:38;99293.81;;;20.08;40.54
70217;BME280;57608;0.000;0.000;2022-09-12T15:42:03;99288.50;;;20.08;40.55
70217;BME280;57608;0.000;0.000;2022-09-12T15:44:29;99290.59;;;20.14;40.50
70217;BME280;57608;0.000;0.000;2022-09-12T15:46:54;99296.63;;;20.17;40.69
70217;BME280;57608;0.000;0.000;2022-09-12T15:49:20;99295.63;;;20.18;40.74
70217;BME280;57608;0.000;0.000;2022-09-12T15:51:47;99298.88;;;20.21;41.08
70217;BME280;57608;0.000;0.000;2022-09-12T15:54:13;99290.91;;;20.21;41.46
70217;BME280;57608;0.000;0.000;2022-09-12T15:56:40;99297.75;;;20.24;41.42